Time;durP1;ratioP1;P1;durP2;ratioP2;P2;SDS_P1;SDS_P2;PMS_P1;PMS_P2;Temp;Humidity;BMP_temperature;BMP_pressure;BME280_temperature;BME280_humidity;BME280_pressure;Samples;Min_cycle;Max_cycle;Signal;HPM_P1;HPM_P2
2022/12/16 00:01:16;;;;;;;46.80;16.47;;;-7.60;99.90;;;;;;5006296;28;20403;-68
2022/12/16 00:03:47;;;;;;;47.93;17.93;;;-7.60;99.90;;;;;;5002068;28;20403;-67
2022/12/16 00:06:12;;;;;;;55.57;18.73;;;-7.70;99.90;;;;;;5004590;28;20061;-67
2022/12/16 00:08:38;;;;;;;48.33;18.07;;;-7.70;99.90;;;;;;5007400;28;20085;-68
2022/12/16 00:11:05;;;;;;;52.97;18.10;;;-7.80;99.90;;;;;;5006912;28;20034;-67
2022/12/16 00:13:32;;;;;;;43.83;17.67;;;-7.80;99.90;;;;;;5005120;28;20518;-67
2022/12/16 00:15:58;;;;;;;51.20;18.43;;;-7.80;99.90;;;;;;5006253;28;20037;-68
2022/12/16 00:18:24;;;;;;;47.43;17.30;;;-7.90;99.90;;;;;;5006148;28;20029;-67
2022/12/16 00:20:54;;;;;;;49.37;17.20;;;-7.90;99.90;;;;;;5011551;28;20511;-68
2022/12/16 00:23:20;;;;;;;49.77;17.37;;;-7.90;99.90;;;;;;4994606;28;20048;-67
2022/12/16 00:25:46;;;;;;;41.30;17.70;;;-8.00;99.90;;;;;;5007893;28;20507;-67
2022/12/16 00:28:14;;;;;;;43.03;17.30;;;-8.00;99.90;;;;;;5011121;28;20041;-67
2022/12/16 00:30:42;;;;;;;47.70;16.23;;;-8.00;99.90;;;;;;5009035;28;20127;-67
2022/12/16 00:33:08;;;;;;;47.93;17.23;;;-8.00;99.90;;;;;;5018326;28;20022;-68
2022/12/16 00:35:33;;;;;;;42.60;17.27;;;-8.10;99.90;;;;;;5023969;28;20142;-67
2022/12/16 00:37:59;;;;;;;49.20;17.73;;;-8.00;99.90;;;;;;5019063;28;20091;-67
2022/12/16 00:40:25;;;;;;;47.60;18.93;;;-8.00;99.90;;;;;;5008346;28;20029;-67
2022/12/16 00:42:51;;;;;;;43.87;17.10;;;-8.10;99.90;;;;;;5013156;28;20030;-65
2022/12/16 00:45:16;;;;;;;46.67;16.93;;;-8.10;99.90;;;;;;5020587;28;20032;-68
2022/12/16 00:47:42;;;;;;;46.43;18.23;;;-8.20;99.90;;;;;;5014514;28;20029;-67
2022/12/16 00:50:08;;;;;;;39.33;15.87;;;-8.20;99.90;;;;;;5016653;28;20027;-68
2022/12/16 00:52:33;;;;;;;43.23;17.23;;;-8.20;99.90;;;;;;5002020;28;20034;-67
2022/12/16 00:54:59;;;;;;;41.63;16.50;;;-8.30;99.90;;;;;;5003246;28;20030;-67
2022/12/16 00:57:25;;;;;;;37.17;16.23;;;-8.20;99.90;;;;;;4999241;28;20064;-67
2022/12/16 00:59:51;;;;;;;38.97;16.67;;;-8.20;99.90;;;;;;5001350;28;20030;-67
2022/12/16 01:02:16;;;;;;;44.90;16.20;;;-8.20;99.90;;;;;;5013448;28;20495;-67
2022/12/16 01:04:42;;;;;;;45.63;16.23;;;-8.20;99.90;;;;;;5012092;28;20030;-67
2022/12/16 01:07:08;;;;;;;50.97;15.17;;;-8.20;99.90;;;;;;5009944;28;20064;-68
2022/12/16 01:09:33;;;;;;;36.67;15.53;;;-8.10;99.90;;;;;;5011070;28;20105;-67
2022/12/16 01:11:59;;;;;;;45.83;17.47;;;-7.90;99.90;;;;;;5010754;28;20121;-66
2022/12/16 01:14:25;;;;;;;37.00;15.03;;;-7.80;99.90;;;;;;5010465;28;20417;-67
2022/12/16 01:16:50;;;;;;;46.70;16.63;;;-7.80;99.90;;;;;;5011560;28;20069;-67
2022/12/16 01:19:16;;;;;;;47.33;17.07;;;-7.80;99.90;;;;;;5010771;28;20053;-67
2022/12/16 01:21:41;;;;;;;50.53;16.43;;;-7.80;99.90;;;;;;5009599;28;20124;-67
2022/12/16 01:24:09;;;;;;;38.93;16.23;;;-7.90;99.90;;;;;;4996758;28;20125;-68
2022/12/16 01:26:34;;;;;;;44.70;16.07;;;-7.90;99.90;;;;;;5009334;28;20034;-68
2022/12/16 01:29:00;;;;;;;48.70;15.97;;;-8.00;99.90;;;;;;5010543;28;20026;-66
2022/12/16 01:31:25;;;;;;;47.97;16.83;;;-8.00;99.90;;;;;;5010714;28;20687;-67
2022/12/16 01:33:51;;;;;;;43.73;16.40;;;-8.00;99.90;;;;;;5004132;28;20037;-67
2022/12/16 01:36:17;;;;;;;45.53;15.53;;;-8.00;99.90;;;;;;5011109;28;20026;-67
2022/12/16 01:38:43;;;;;;;50.03;15.60;;;-8.00;99.90;;;;;;5008728;28;20032;-67
2022/12/16 01:41:11;;;;;;;54.90;16.80;;;-8.00;99.90;;;;;;5028146;28;20100;-68
2022/12/16 01:43:39;;;;;;;46.93;17.33;;;-8.00;99.90;;;;;;5011574;28;20030;-67
2022/12/16 01:46:13;;;;;;;44.00;15.07;;;-8.00;99.90;;;;;;5012383;28;20030;-67
2022/12/16 01:48:51;;;;;;;43.43;14.83;;;-8.10;99.90;;;;;;5002834;28;20026;-65
2022/12/16 01:51:35;;;;;;;43.53;17.07;;;-8.20;99.90;;;;;;4999276;28;20037;-68
2022/12/16 01:54:04;;;;;;;40.17;14.80;;;-8.20;99.90;;;;;;5011558;28;20030;-67
2022/12/16 01:56:32;;;;;;;40.57;14.97;;;-8.20;99.90;;;;;;5009414;28;20028;-67
2022/12/16 01:58:59;;;;;;;59.47;19.30;;;-8.20;99.90;;;;;;5011151;28;20033;-67
2022/12/16 02:01:25;;;;;;;44.70;15.37;;;-8.20;99.90;;;;;;5010215;28;20437;-67
2022/12/16 02:03:53;;;;;;;39.53;14.13;;;-8.20;99.90;;;;;;5006091;28;20065;-67
2022/12/16 02:06:18;;;;;;;40.00;16.77;;;-8.30;99.90;;;;;;5008092;28;20022;-67
2022/12/16 02:08:44;;;;;;;41.80;15.80;;;-8.30;99.90;;;;;;5010417;28;20033;-67
2022/12/16 02:11:57;;;;;;;46.93;15.57;;;-8.40;99.90;;;;;;5011773;28;20021;-66
2022/12/16 02:14:28;;;;;;;44.90;15.73;;;-8.40;99.90;;;;;;5010315;28;20056;-67
2022/12/16 02:17:14;;;;;;;39.70;15.73;;;-8.50;99.90;;;;;;5005336;28;20030;-66
2022/12/16 02:20:04;;;;;;;43.73;14.33;;;-8.50;99.90;;;;;;5007316;28;20026;-67
2022/12/16 02:23:08;;;;;;;38.60;14.50;;;-8.60;99.90;;;;;;5021104;28;20082;-66
2022/12/16 02:26:06;;;;;;;42.87;15.17;;;-8.60;99.90;;;;;;4994179;28;20606;-67
2022/12/16 02:28:43;;;;;;;42.03;14.43;;;-8.70;99.90;;;;;;5003456;28;20100;-67
2022/12/16 02:31:21;;;;;;;48.40;14.93;;;-8.70;99.90;;;;;;5006981;28;20040;-67
2022/12/16 02:34:04;;;;;;;42.20;16.80;;;-8.70;99.90;;;;;;5007626;28;20030;-67
2022/12/16 02:36:48;;;;;;;40.07;13.07;;;-8.70;99.90;;;;;;5015303;28;20030;-68
2022/12/16 02:39:29;;;;;;;43.50;15.30;;;-8.70;99.90;;;;;;4997827;28;20377;-68
2022/12/16 02:42:33;;;;;;;37.63;14.23;;;-8.60;99.90;;;;;;5002263;28;20057;-66
2022/12/16 02:45:16;;;;;;;53.33;15.80;;;-8.60;99.90;;;;;;4997114;28;20034;-68
2022/12/16 02:47:43;;;;;;;33.03;13.80;;;-8.60;99.90;;;;;;4999769;28;20030;-67
2022/12/16 02:50:50;;;;;;;35.93;14.37;;;-8.60;99.90;;;;;;4995909;28;20168;-68
2022/12/16 02:53:19;;;;;;;33.20;14.33;;;-8.60;99.90;;;;;;4998465;28;20503;-68
2022/12/16 02:56:00;;;;;;;36.03;14.37;;;-8.60;99.90;;;;;;5000469;28;20030;-67
2022/12/16 02:58:50;;;;;;;39.33;13.63;;;-8.60;99.90;;;;;;5014316;28;20042;-67
2022/12/16 03:01:27;;;;;;;34.67;12.90;;;-8.60;99.90;;;;;;5010169;28;20102;-66
2022/12/16 03:04:15;;;;;;;32.50;13.57;;;-8.60;99.90;;;;;;5008656;28;20041;-68
2022/12/16 03:06:44;;;;;;;34.53;13.07;;;-8.50;99.90;;;;;;5006183;28;20045;-67
2022/12/16 03:09:13;;;;;;;48.27;14.97;;;-8.50;99.90;;;;;;5010292;28;20614;-67
2022/12/16 03:11:42;;;;;;;40.63;12.67;;;-8.40;99.90;;;;;;5003447;28;20033;-67
2022/12/16 03:14:11;;;;;;;30.10;12.37;;;-8.40;99.90;;;;;;5015611;28;20040;-67
2022/12/16 03:16:37;;;;;;;43.57;14.00;;;-8.50;99.90;;;;;;5009925;28;20064;-67
2022/12/16 03:19:07;;;;;;;36.17;13.07;;;-8.50;99.90;;;;;;5008153;28;20460;-67
2022/12/16 03:21:57;;;;;;;41.23;14.27;;;-8.50;99.90;;;;;;5008851;28;20034;-67
2022/12/16 03:24:24;;;;;;;35.70;13.47;;;-8.50;99.90;;;;;;4988165;28;20053;-68
2022/12/16 03:27:01;;;;;;;33.93;12.23;;;-8.50;99.90;;;;;;5007947;28;20061;-67
2022/12/16 03:29:53;;;;;;;40.30;13.13;;;-8.50;99.90;;;;;;5009549;28;20026;-67
2022/12/16 03:32:50;;;;;;;37.03;12.23;;;-8.60;99.90;;;;;;5007705;28;20065;-67
2022/12/16 03:35:27;;;;;;;38.77;14.03;;;-8.60;99.90;;;;;;5004944;28;20034;-65
2022/12/16 03:37:56;;;;;;;36.50;13.57;;;-8.60;99.90;;;;;;5010000;28;20403;-67
2022/12/16 03:40:24;;;;;;;35.37;12.07;;;-8.70;99.90;;;;;;5010325;28;20029;-67
2022/12/16 03:42:52;;;;;;;35.73;12.77;;;-8.80;99.90;;;;;;5009439;28;20052;-66
2022/12/16 03:45:27;;;;;;;41.03;12.03;;;-8.80;99.90;;;;;;5010055;28;20030;-67
2022/12/16 03:47:57;;;;;;;40.10;15.73;;;-8.80;99.90;;;;;;5008100;28;20057;-68
2022/12/16 03:50:29;;;;;;;34.50;12.90;;;-8.80;99.90;;;;;;5009820;28;20029;-68
2022/12/16 03:52:55;;;;;;;36.50;13.80;;;-8.80;99.90;;;;;;5006495;28;20107;-68
2022/12/16 03:55:20;;;;;;;36.40;13.67;;;-8.90;99.90;;;;;;5008566;28;20707;-67
2022/12/16 03:57:46;;;;;;;43.53;15.40;;;-8.90;99.90;;;;;;5009761;28;20133;-68
2022/12/16 04:00:12;;;;;;;39.50;15.27;;;-9.00;99.90;;;;;;5008692;28;20093;-69
2022/12/16 04:02:37;;;;;;;33.90;14.13;;;-9.00;99.90;;;;;;5005794;28;20034;-68
2022/12/16 04:05:03;;;;;;;31.37;12.83;;;-9.10;99.90;;;;;;5009261;28;20388;-67
2022/12/16 04:07:29;;;;;;;36.07;14.30;;;-9.10;99.90;;;;;;5009342;28;20037;-66
2022/12/16 04:09:55;;;;;;;42.70;14.17;;;-9.10;99.90;;;;;;5010129;28;20773;-67
2022/12/16 04:26:15;;;;;;;25.27;9.73;;;-8.80;99.90;;;;;;4992993;28;20095;-65
2022/12/16 04:28:41;;;;;;;25.97;10.27;;;-8.80;99.90;;;;;;5008024;28;20108;-68
2022/12/16 04:31:06;;;;;;;26.80;10.23;;;-8.70;99.90;;;;;;5009462;28;20476;-67
